createdAt,value
2022-10-16T00:00:55.403Z,100048.63
2022-10-16T00:03:26.564Z,100049.25
2022-10-16T00:06:01.143Z,100069.19
2022-10-16T00:08:28.598Z,100062.78
2022-10-16T00:11:00.845Z,100061.03
2022-10-16T00:13:27.402Z,100063.91
2022-10-16T00:15:57.139Z,100064.94
2022-10-16T00:18:24.130Z,100059.06
2022-10-16T00:20:51.039Z,100068.50
2022-10-16T00:23:36.952Z,100067.84
2022-10-16T00:26:06.511Z,100061.44
2022-10-16T00:28:33.384Z,100061.19
2022-10-16T00:31:00.009Z,100068.63
2022-10-16T00:33:26.986Z,100071.00
2022-10-16T00:35:53.515Z,100074.81
2022-10-16T00:38:20.113Z,100081.00
2022-10-16T00:40:46.645Z,100083.44
2022-10-16T00:43:39.105Z,100088.72
2022-10-16T00:46:14.410Z,100094.78
2022-10-16T00:48:41.954Z,100088.53
2022-10-16T00:51:09.630Z,100090.78
2022-10-16T00:53:36.465Z,100085.59
2022-10-16T00:56:04.167Z,100088.56
2022-10-16T00:58:30.768Z,100086.09
2022-10-16T01:00:57.434Z,100093.34
2022-10-16T01:03:36.626Z,100095.84
2022-10-16T01:09:01.466Z,100102.72
2022-10-16T01:11:55.044Z,100102.28
2022-10-16T01:14:49.028Z,100104.78
2022-10-16T01:17:24.494Z,100115.41
2022-10-16T01:20:04.029Z,100118.53
2022-10-16T01:23:06.560Z,100110.22
2022-10-16T01:25:51.777Z,100109.78
2022-10-16T01:28:23.104Z,100112.47
2022-10-16T01:30:57.278Z,100119.13
2022-10-16T01:33:39.201Z,100117.50
2022-10-16T01:36:15.838Z,100122.91
2022-10-16T01:38:45.764Z,100118.28
2022-10-16T01:41:19.544Z,100119.97
2022-10-16T01:44:09.470Z,100127.28
2022-10-16T01:46:39.086Z,100126.84
2022-10-16T01:49:07.300Z,100128.09
2022-10-16T01:51:35.927Z,100128.63
2022-10-16T01:54:03.465Z,100126.56
2022-10-16T01:56:30.670Z,100125.47
2022-10-16T01:59:02.650Z,100130.47
2022-10-16T02:01:32.143Z,100117.50
2022-10-16T02:04:03.150Z,100116.19
2022-10-16T02:06:30.493Z,100122.84
2022-10-16T02:08:57.432Z,100121.81
2022-10-16T02:11:23.978Z,100125.13
2022-10-16T02:14:01.818Z,100120.56
2022-10-16T02:16:44.516Z,100126.34
2022-10-16T02:19:17.914Z,100129.75
2022-10-16T02:21:46.995Z,100128.63
2022-10-16T02:24:34.884Z,100123.69
2022-10-16T02:27:21.875Z,100121.31
2022-10-16T02:29:59.604Z,100130.25
2022-10-16T02:32:32.119Z,100137.06
2022-10-16T02:35:01.090Z,100142.03
2022-10-16T02:37:29.435Z,100143.91
2022-10-16T02:39:58.081Z,100141.84
2022-10-16T02:42:36.704Z,100138.09
2022-10-16T02:45:04.570Z,100128.66
2022-10-16T02:47:31.111Z,100125.63
2022-10-16T02:49:57.923Z,100130.31
2022-10-16T02:52:24.779Z,100117.00
2022-10-16T02:54:52.480Z,100120.50
2022-10-16T02:57:19.270Z,100113.53
2022-10-16T02:59:46.674Z,100110.75
2022-10-16T03:02:13.315Z,100119.41
2022-10-16T03:04:40.431Z,100114.34
2022-10-16T03:07:07.241Z,100114.09
2022-10-16T03:09:34.092Z,100108.72
2022-10-16T03:12:00.797Z,100115.47
2022-10-16T03:16:55.153Z,100109.66
2022-10-16T03:19:21.889Z,100119.22
2022-10-16T03:21:48.435Z,100113.25
2022-10-16T03:24:15.275Z,100121.38
2022-10-16T03:26:42.104Z,100122.09
2022-10-16T03:29:08.762Z,100124.91
2022-10-16T03:31:35.322Z,100121.19
2022-10-16T03:34:02.206Z,100107.97
2022-10-16T03:36:28.754Z,100119.94
2022-10-16T03:38:55.289Z,100115.94
2022-10-16T03:41:22.033Z,100115.19
2022-10-16T03:43:48.601Z,100109.06
2022-10-16T03:46:15.140Z,100108.97
2022-10-16T03:48:41.735Z,100117.81
2022-10-16T03:51:08.334Z,100122.72
2022-10-16T03:53:34.935Z,100117.94
2022-10-16T03:56:01.503Z,100113.28
2022-10-16T03:58:28.048Z,100116.88
2022-10-16T04:00:54.678Z,100119.50
2022-10-16T04:03:22.286Z,100121.47
2022-10-16T04:05:49.503Z,100126.06
2022-10-16T04:08:16.322Z,100133.97
2022-10-16T04:10:46.577Z,100128.69
2022-10-16T04:13:13.615Z,100135.19
2022-10-16T04:15:40.324Z,100145.13
2022-10-16T04:18:07.392Z,100147.41
2022-10-16T04:20:34.567Z,100149.13
2022-10-16T04:23:01.515Z,100163.59
2022-10-16T04:25:28.278Z,100166.38
2022-10-16T04:27:55.208Z,100178.75
2022-10-16T04:30:22.662Z,100166.75
2022-10-16T04:32:51.086Z,100171.94
2022-10-16T04:35:19.223Z,100166.09
2022-10-16T04:37:46.204Z,100164.34
2022-10-16T04:40:13.697Z,100163.69
2022-10-16T04:42:40.307Z,100175.34
2022-10-16T04:45:10.934Z,100170.22
2022-10-16T04:47:40.082Z,100169.88
2022-10-16T04:50:07.167Z,100174.63
2022-10-16T04:55:03.583Z,100180.28
2022-10-16T04:57:30.851Z,100181.22
2022-10-16T04:59:57.950Z,100180.28
2022-10-16T05:02:24.538Z,100176.16
2022-10-16T05:04:51.391Z,100171.78
2022-10-16T05:07:18.339Z,100170.94
2022-10-16T05:09:44.903Z,100178.00
2022-10-16T05:12:11.555Z,100185.19
2022-10-16T05:14:38.406Z,100200.97
2022-10-16T05:17:05.211Z,100206.38
2022-10-16T05:19:31.789Z,100194.25
2022-10-16T05:21:58.372Z,100195.81
2022-10-16T05:24:24.994Z,100189.03
2022-10-16T05:26:52.405Z,100194.84
2022-10-16T05:29:19.098Z,100194.53
2022-10-16T05:31:46.182Z,100198.69
2022-10-16T05:34:13.362Z,100192.78
2022-10-16T05:36:39.899Z,100196.63
2022-10-16T05:39:07.191Z,100191.47
2022-10-16T05:41:34.276Z,100196.69
2022-10-16T05:44:04.575Z,100199.94
2022-10-16T05:46:31.098Z,100203.50
2022-10-16T05:48:57.834Z,100205.88
2022-10-16T05:51:24.656Z,100202.50
2022-10-16T05:53:51.239Z,100188.78
2022-10-16T05:56:17.810Z,100200.38
2022-10-16T05:58:45.519Z,100207.94
2022-10-16T06:01:17.969Z,100201.75
2022-10-16T06:03:45.306Z,100196.94
2022-10-16T06:06:14.498Z,100204.72
2022-10-16T06:08:43.214Z,100211.94
2022-10-16T06:11:12.160Z,100211.19
2022-10-16T06:13:39.951Z,100225.28
2022-10-16T06:16:07.114Z,100223.69
2022-10-16T06:18:33.673Z,100228.47
2022-10-16T06:21:00.677Z,100233.47
2022-10-16T06:23:29.396Z,100237.72
2022-10-16T06:26:06.005Z,100245.09
2022-10-16T06:28:32.625Z,100238.84
2022-10-16T06:31:07.281Z,100230.22
2022-10-16T06:33:35.832Z,100236.22
2022-10-16T06:36:11.650Z,100233.78
2022-10-16T06:38:39.862Z,100246.25
2022-10-16T06:41:08.027Z,100261.22
2022-10-16T06:43:36.244Z,100268.13
2022-10-16T06:46:05.618Z,100264.19
2022-10-16T06:48:32.593Z,100268.28
2022-10-16T06:51:12.482Z,100266.22
2022-10-16T06:54:01.125Z,100264.34
2022-10-16T06:56:30.981Z,100268.13
2022-10-16T06:58:58.204Z,100276.84
2022-10-16T07:01:27.039Z,100283.75
2022-10-16T07:03:54.773Z,100285.84
2022-10-16T07:06:23.469Z,100285.63
2022-10-16T07:08:50.795Z,100292.28
2022-10-16T07:11:20.250Z,100287.22
2022-10-16T07:13:51.056Z,100302.91
2022-10-16T07:16:24.191Z,100309.78
2022-10-16T07:18:55.104Z,100307.31
2022-10-16T07:21:23.528Z,100309.97
2022-10-16T07:23:58.935Z,100318.50
2022-10-16T07:26:26.750Z,100327.44
2022-10-16T07:28:53.580Z,100342.94
2022-10-16T07:31:22.069Z,100345.19
2022-10-16T07:33:49.368Z,100362.13
2022-10-16T07:36:18.755Z,100357.47
2022-10-16T07:38:46.835Z,100352.63
2022-10-16T07:41:16.203Z,100366.38
2022-10-16T07:43:47.929Z,100369.34
2022-10-16T07:46:15.458Z,100371.50
2022-10-16T07:48:41.992Z,100374.91
2022-10-16T07:51:08.647Z,100369.41
2022-10-16T07:53:35.408Z,100373.03
2022-10-16T07:56:06.693Z,100381.13
2022-10-16T07:58:34.644Z,100389.63
2022-10-16T08:01:06.216Z,100389.31
2022-10-16T08:03:33.279Z,100412.72
2022-10-16T08:06:00.887Z,100421.88
2022-10-16T08:08:28.303Z,100422.25
2022-10-16T08:10:55.374Z,100443.19
2022-10-16T08:13:22.234Z,100436.66
2022-10-16T08:15:48.926Z,100446.09
2022-10-16T08:18:16.800Z,100455.78
2022-10-16T08:20:44.949Z,100453.06
2022-10-16T08:23:14.906Z,100453.88
2022-10-16T08:25:42.702Z,100471.38
2022-10-16T08:28:11.034Z,100469.72
2022-10-16T08:30:38.436Z,100474.44
2022-10-16T08:33:05.113Z,100467.56
2022-10-16T08:35:31.717Z,100461.66
2022-10-16T08:37:58.279Z,100462.78
2022-10-16T08:40:36.777Z,100468.53
2022-10-16T08:43:20.081Z,100461.31
2022-10-16T08:46:08.626Z,100444.16
2022-10-16T08:48:42.267Z,100461.69
2022-10-16T08:51:11.897Z,100464.00
2022-10-16T08:53:47.735Z,100468.44
2022-10-16T08:56:14.283Z,100465.69
2022-10-16T08:58:40.873Z,100470.88
2022-10-16T09:01:15.048Z,100469.47
2022-10-16T09:03:47.667Z,100468.84
2022-10-16T09:06:30.756Z,100473.34
2022-10-16T09:09:16.017Z,100479.91
2022-10-16T09:12:01.085Z,100479.69
2022-10-16T09:14:55.292Z,100486.44
2022-10-16T09:17:37.184Z,100490.25
2022-10-16T09:20:16.198Z,100491.41
2022-10-16T09:22:42.757Z,100482.63
2022-10-16T09:25:17.766Z,100493.63
2022-10-16T09:27:48.828Z,100494.41
2022-10-16T09:30:18.781Z,100491.88
2022-10-16T09:32:49.225Z,100497.88
2022-10-16T09:35:40.789Z,100498.16
2022-10-16T09:38:08.129Z,100500.50
2022-10-16T09:40:38.186Z,100488.59
2022-10-16T09:43:21.230Z,100500.91
2022-10-16T09:46:09.075Z,100490.78
2022-10-16T09:48:40.100Z,100501.34
2022-10-16T09:51:36.455Z,100510.72
2022-10-16T09:54:15.223Z,100513.16
2022-10-16T09:56:42.573Z,100510.25
2022-10-16T09:59:14.572Z,100511.84
2022-10-16T10:01:47.360Z,100509.13
2022-10-16T10:04:14.350Z,100518.34
2022-10-16T10:06:49.942Z,100521.28
2022-10-16T10:09:20.532Z,100520.03
2022-10-16T10:11:54.930Z,100521.78
2022-10-16T10:14:29.813Z,100511.44
2022-10-16T10:17:11.331Z,100501.53
2022-10-16T10:19:42.437Z,100506.94
2022-10-16T10:22:20.604Z,100502.66
2022-10-16T10:25:13.294Z,100500.25
2022-10-16T10:28:10.650Z,100508.47
2022-10-16T10:31:12.718Z,100513.06
2022-10-16T10:34:29.277Z,100522.41
2022-10-16T10:37:07.270Z,100525.38
2022-10-16T10:39:46.605Z,100531.03
2022-10-16T10:42:31.209Z,100528.09
2022-10-16T10:45:04.579Z,100524.59
2022-10-16T10:48:03.010Z,100532.97
2022-10-16T10:50:44.576Z,100543.56
2022-10-16T10:53:46.362Z,100544.34
2022-10-16T10:56:25.197Z,100542.97
2022-10-16T10:58:59.525Z,100545.50
2022-10-16T11:01:47.357Z,100561.66
2022-10-16T11:04:43.343Z,100555.06
2022-10-16T11:07:30.285Z,100557.19
2022-10-16T11:10:10.164Z,100545.94
2022-10-16T11:12:43.631Z,100552.94
2022-10-16T11:15:26.690Z,100555.28
2022-10-16T11:18:00.091Z,100559.38
2022-10-16T11:20:38.565Z,100560.88
2022-10-16T11:23:16.507Z,100555.03
2022-10-16T11:25:44.701Z,100563.88
2022-10-16T11:28:27.987Z,100556.00
2022-10-16T11:31:09.360Z,100567.22
2022-10-16T11:33:44.653Z,100582.41
2022-10-16T11:36:23.947Z,100580.22
2022-10-16T11:39:17.345Z,100584.56
2022-10-16T11:41:50.492Z,100590.88
2022-10-16T11:44:37.071Z,100586.56
2022-10-16T11:47:46.396Z,100596.94
2022-10-16T11:50:20.881Z,100590.56
2022-10-16T11:53:14.276Z,100598.00
2022-10-16T11:55:46.752Z,100585.72
2022-10-16T11:58:23.884Z,100592.16
2022-10-16T12:01:00.944Z,100589.91
2022-10-16T12:03:38.090Z,100591.88
2022-10-16T12:06:26.425Z,100600.41
2022-10-16T12:08:55.013Z,100602.16
2022-10-16T12:11:27.713Z,100603.22
2022-10-16T12:14:17.281Z,100605.84
2022-10-16T12:16:57.632Z,100609.56
2022-10-16T12:19:26.370Z,100602.72
2022-10-16T12:21:56.874Z,100607.31
2022-10-16T12:24:37.640Z,100613.75
2022-10-16T12:27:07.564Z,100607.38
2022-10-16T12:29:38.370Z,100606.88
2022-10-16T12:32:35.137Z,100614.34
2022-10-16T12:35:18.636Z,100612.16
2022-10-16T12:37:46.133Z,100617.00
2022-10-16T12:40:28.079Z,100611.00
2022-10-16T12:42:54.711Z,100612.53
2022-10-16T12:45:34.883Z,100623.75
2022-10-16T12:48:05.847Z,100636.09
2022-10-16T12:50:38.888Z,100628.28
2022-10-16T12:53:21.007Z,100642.66
2022-10-16T12:56:04.369Z,100633.38
2022-10-16T12:58:43.297Z,100631.94
2022-10-16T13:01:34.661Z,100623.81
2022-10-16T13:04:15.641Z,100628.56
2022-10-16T13:06:51.599Z,100629.88
2022-10-16T13:09:39.696Z,100636.31
2022-10-16T13:12:16.772Z,100643.53
2022-10-16T13:15:31.509Z,100641.47
2022-10-16T13:18:17.038Z,100648.81
2022-10-16T13:20:56.026Z,100655.25
2022-10-16T13:23:32.084Z,100659.84
2022-10-16T13:26:13.858Z,100661.38
2022-10-16T13:28:40.739Z,100665.03
2022-10-16T13:31:25.325Z,100677.00
2022-10-16T13:33:59.734Z,100680.91
2022-10-16T13:36:29.320Z,100675.06
2022-10-16T13:39:07.422Z,100678.13
2022-10-16T13:41:34.141Z,100683.25
2022-10-16T13:44:00.713Z,100672.72
2022-10-16T13:46:27.522Z,100675.63
2022-10-16T13:49:05.958Z,100681.66
2022-10-16T13:51:34.152Z,100683.63
2022-10-16T13:54:00.801Z,100688.72
2022-10-16T13:56:33.543Z,100690.75
2022-10-16T13:59:06.444Z,100698.22
2022-10-16T14:01:41.288Z,100700.44
2022-10-16T14:04:11.965Z,100705.44
2022-10-16T14:06:43.285Z,100698.53
2022-10-16T14:09:21.941Z,100702.56
2022-10-16T14:11:54.734Z,100716.88
2022-10-16T14:14:21.567Z,100727.31
2022-10-16T14:16:48.814Z,100714.34
2022-10-16T14:19:27.975Z,100715.22
2022-10-16T14:21:54.931Z,100721.13
2022-10-16T14:24:34.375Z,100705.69
2022-10-16T14:27:02.181Z,100714.28
2022-10-16T14:29:32.434Z,100731.28
2022-10-16T14:32:06.975Z,100725.72
2022-10-16T14:34:41.430Z,100735.81
2022-10-16T14:37:26.680Z,100733.00
2022-10-16T14:39:55.830Z,100738.44
2022-10-16T14:42:25.652Z,100737.50
2022-10-16T14:44:55.453Z,100744.16
2022-10-16T14:47:27.654Z,100750.22
2022-10-16T14:49:56.829Z,100745.09
2022-10-16T14:52:23.558Z,100747.91
2022-10-16T14:54:50.933Z,100743.47
2022-10-16T14:57:19.724Z,100744.44
2022-10-16T14:59:48.057Z,100744.75
2022-10-16T15:02:28.152Z,100741.38
2022-10-16T15:04:54.821Z,100748.56
2022-10-16T15:07:21.919Z,100744.88
2022-10-16T15:09:49.503Z,100759.44
2022-10-16T15:12:17.557Z,100760.59
2022-10-16T15:14:44.655Z,100760.34
2022-10-16T15:17:12.010Z,100766.47
2022-10-16T15:19:38.984Z,100770.59
2022-10-16T15:22:05.825Z,100769.91
2022-10-16T15:24:32.317Z,100768.22
2022-10-16T15:26:58.933Z,100779.44
2022-10-16T15:29:25.545Z,100780.22
2022-10-16T15:31:52.088Z,100783.28
2022-10-16T15:34:20.400Z,100795.31
2022-10-16T15:36:47.134Z,100784.94
2022-10-16T15:39:17.511Z,100782.41
2022-10-16T15:41:45.589Z,100787.78
2022-10-16T15:44:12.265Z,100786.41
2022-10-16T15:46:38.843Z,100790.38
2022-10-16T15:49:05.527Z,100785.66
2022-10-16T15:51:33.911Z,100787.53
2022-10-16T15:54:02.607Z,100787.78
2022-10-16T15:56:29.530Z,100784.84
2022-10-16T15:58:56.232Z,100790.28
2022-10-16T16:01:22.927Z,100786.81
2022-10-16T16:03:56.144Z,100789.69
2022-10-16T16:06:24.700Z,100789.41
2022-10-16T16:08:52.468Z,100791.81
2022-10-16T16:11:20.564Z,100795.75
2022-10-16T16:13:47.198Z,100792.41
2022-10-16T16:16:16.725Z,100793.78
2022-10-16T16:18:44.287Z,100791.59
2022-10-16T16:21:12.170Z,100798.03
2022-10-16T16:23:38.885Z,100799.31
2022-10-16T16:26:24.848Z,100797.72
2022-10-16T16:28:51.496Z,100803.78
2022-10-16T16:31:18.131Z,100805.41
2022-10-16T16:33:44.689Z,100810.84
2022-10-16T16:36:15.628Z,100819.66
2022-10-16T16:38:42.841Z,100820.69
2022-10-16T16:41:18.189Z,100824.94
2022-10-16T16:43:45.647Z,100820.69
2022-10-16T16:46:12.970Z,100821.16
2022-10-16T16:48:40.098Z,100823.28
2022-10-16T16:51:09.578Z,100827.34
2022-10-16T16:53:36.979Z,100839.06
2022-10-16T16:56:05.451Z,100843.03
2022-10-16T16:58:33.636Z,100854.41
2022-10-16T17:01:19.287Z,100852.13
2022-10-16T17:03:46.624Z,100853.38
2022-10-16T17:06:15.272Z,100861.75
2022-10-16T17:08:43.425Z,100863.41
2022-10-16T17:11:15.178Z,100863.44
2022-10-16T17:13:42.282Z,100870.16
2022-10-16T17:16:09.662Z,100873.25
2022-10-16T17:18:36.828Z,100873.94
2022-10-16T17:21:06.214Z,100885.66
2022-10-16T17:23:33.712Z,100881.88
2022-10-16T17:26:08.997Z,100881.25
2022-10-16T17:28:35.644Z,100888.16
2022-10-16T17:31:16.159Z,100890.63
2022-10-16T17:33:44.190Z,100893.75
2022-10-16T17:36:11.831Z,100896.69
2022-10-16T17:38:38.412Z,100896.00
2022-10-16T17:41:25.252Z,100898.06
2022-10-16T17:43:52.769Z,100899.31
2022-10-16T17:46:22.399Z,100899.34
2022-10-16T17:48:52.176Z,100907.00
2022-10-16T17:51:21.895Z,100905.25
2022-10-16T17:53:49.879Z,100898.75
2022-10-16T17:56:17.041Z,100913.53
2022-10-16T17:58:46.502Z,100922.22
2022-10-16T18:01:19.712Z,100921.84
2022-10-16T18:03:54.585Z,100922.31
2022-10-16T18:06:23.028Z,100926.91
2022-10-16T18:08:51.281Z,100928.63
2022-10-16T18:11:19.124Z,100940.63
2022-10-16T18:13:45.995Z,100948.75
2022-10-16T18:16:14.557Z,100955.41
2022-10-16T18:18:44.941Z,100952.69
2022-10-16T18:21:14.044Z,100948.50
2022-10-16T18:23:41.839Z,100945.38
2022-10-16T18:26:10.676Z,100944.09
2022-10-16T18:28:38.254Z,100955.09
2022-10-16T18:31:09.332Z,100953.53
2022-10-16T18:33:36.122Z,100952.88
2022-10-16T18:36:08.005Z,100956.56
2022-10-16T18:38:35.745Z,100954.81
2022-10-16T18:41:05.405Z,100953.53
2022-10-16T18:43:32.915Z,100946.19
2022-10-16T18:46:02.932Z,100953.63
2022-10-16T18:48:30.560Z,100956.81
2022-10-16T18:51:12.727Z,100952.56
2022-10-16T18:53:42.001Z,100961.72
2022-10-16T18:56:09.578Z,100969.06
2022-10-16T18:58:36.646Z,100969.09
2022-10-16T19:01:07.991Z,100973.59
2022-10-16T19:03:36.235Z,100973.22
2022-10-16T19:06:04.427Z,100966.34
2022-10-16T19:08:33.568Z,100970.78
2022-10-16T19:11:05.111Z,100981.84
2022-10-16T19:13:32.067Z,100976.97
2022-10-16T19:16:09.474Z,100975.28
2022-10-16T19:18:46.226Z,100988.84
2022-10-16T19:21:14.749Z,100985.13
2022-10-16T19:23:42.323Z,100974.03
2022-10-16T19:26:15.068Z,100978.41
2022-10-16T19:28:43.092Z,100980.22
2022-10-16T19:31:14.513Z,100974.75
2022-10-16T19:33:41.646Z,100978.06
2022-10-16T19:36:15.603Z,100974.06
2022-10-16T19:38:42.805Z,100985.75
2022-10-16T19:41:19.209Z,100977.63
2022-10-16T19:43:47.069Z,100975.69
2022-10-16T19:46:16.979Z,100974.91
2022-10-16T19:48:44.651Z,100975.03
2022-10-16T19:51:14.718Z,100983.94
2022-10-16T19:53:41.337Z,100970.13
2022-10-16T19:56:16.713Z,100967.81
2022-10-16T19:58:44.696Z,100962.50
2022-10-16T20:01:12.829Z,100972.13
2022-10-16T20:03:40.516Z,100972.19
2022-10-16T20:06:08.569Z,100963.72
2022-10-16T20:08:37.302Z,100975.94
2022-10-16T20:11:05.140Z,100966.84
2022-10-16T20:13:32.595Z,100974.25
2022-10-16T20:15:59.415Z,100972.31
2022-10-16T20:18:26.101Z,100985.81
2022-10-16T20:20:52.669Z,100995.19
2022-10-16T20:23:19.801Z,101009.75
2022-10-16T20:25:47.211Z,101012.22
2022-10-16T20:28:18.230Z,101025.78
2022-10-16T20:30:47.411Z,101006.28
2022-10-16T20:33:15.247Z,101003.94
2022-10-16T20:35:47.883Z,101011.50
2022-10-16T20:38:15.950Z,101025.88
2022-10-16T20:40:45.612Z,101037.47
2022-10-16T20:43:17.636Z,101039.88
2022-10-16T20:45:45.413Z,101032.53
2022-10-16T20:48:13.713Z,101047.31
2022-10-16T20:50:41.582Z,101058.94
2022-10-16T20:53:08.469Z,101060.25
2022-10-16T20:55:37.067Z,101045.25
2022-10-16T20:58:04.885Z,101050.94
2022-10-16T21:00:31.727Z,101047.22
2022-10-16T21:02:58.362Z,101047.00
2022-10-16T21:05:28.653Z,101047.94
2022-10-16T21:07:55.630Z,101050.00
2022-10-16T21:10:23.051Z,101046.53
2022-10-16T21:12:55.548Z,101032.94
2022-10-16T21:15:22.567Z,101028.56
2022-10-16T21:17:49.500Z,101027.53
2022-10-16T21:20:16.360Z,101022.34
2022-10-16T21:22:42.971Z,101029.75
2022-10-16T21:25:09.812Z,101029.63
2022-10-16T21:27:38.283Z,101044.19
2022-10-16T21:30:06.805Z,101046.91
2022-10-16T21:32:35.826Z,101055.50
2022-10-16T21:35:03.099Z,101062.69
2022-10-16T21:37:29.657Z,101061.94
2022-10-16T21:39:56.300Z,101064.19
2022-10-16T21:42:23.011Z,101071.66
2022-10-16T21:44:49.595Z,101076.69
2022-10-16T21:47:17.135Z,101076.03
2022-10-16T21:49:43.735Z,101071.84
2022-10-16T21:52:10.253Z,101073.63
2022-10-16T21:54:36.786Z,101067.78
2022-10-16T21:59:30.892Z,101081.31
2022-10-16T22:01:57.736Z,101086.09
2022-10-16T22:04:24.290Z,101089.97
2022-10-16T22:06:51.134Z,101098.59
2022-10-16T22:09:17.938Z,101101.25
2022-10-16T22:11:44.908Z,101101.97
2022-10-16T22:14:16.083Z,101097.50
2022-10-16T22:16:43.449Z,101081.00
2022-10-16T22:19:12.166Z,101069.19
2022-10-16T22:21:40.572Z,101063.78
2022-10-16T22:24:08.159Z,101068.72
2022-10-16T22:26:35.585Z,101065.16
2022-10-16T22:29:02.293Z,101062.22
2022-10-16T22:31:29.715Z,101059.44
2022-10-16T22:34:01.807Z,101050.22
2022-10-16T22:36:28.801Z,101043.34
2022-10-16T22:38:55.568Z,101027.31
2022-10-16T22:41:22.969Z,101007.31
2022-10-16T22:43:50.154Z,101012.81
2022-10-16T22:46:19.813Z,101025.56
2022-10-16T22:48:46.585Z,101031.28
2022-10-16T22:51:16.777Z,101034.28
2022-10-16T22:53:46.575Z,101016.41
2022-10-16T22:56:14.383Z,101004.59
2022-10-16T22:58:41.462Z,100994.16
2022-10-16T23:01:17.631Z,100992.75
2022-10-16T23:03:44.413Z,100993.97
2022-10-16T23:06:11.005Z,100996.69
2022-10-16T23:08:37.569Z,101010.22
2022-10-16T23:11:07.502Z,101012.47
2022-10-16T23:13:38.584Z,101019.06
2022-10-16T23:16:06.938Z,101022.88
2022-10-16T23:18:36.824Z,101019.34
2022-10-16T23:21:12.326Z,101018.72
2022-10-16T23:23:39.937Z,101016.47
2022-10-16T23:26:11.329Z,101008.88
2022-10-16T23:28:38.482Z,101001.47
2022-10-16T23:31:06.581Z,101007.03
2022-10-16T23:33:34.606Z,101010.06
2022-10-16T23:36:05.096Z,100996.25
2022-10-16T23:38:31.742Z,100989.97
2022-10-16T23:40:58.325Z,100982.63
2022-10-16T23:43:24.841Z,100968.31
2022-10-16T23:45:51.417Z,100966.50
2022-10-16T23:48:17.946Z,100972.19
2022-10-16T23:50:44.463Z,100981.84
2022-10-16T23:53:10.977Z,100974.84
2022-10-16T23:55:37.570Z,100965.28
2022-10-16T23:58:04.086Z,100964.69
